Time;durP1;ratioP1;P1;durP2;ratioP2;P2;SDS_P1;SDS_P2;PMS_P1;PMS_P2;Temp;Humidity;BMP_temperature;BMP_pressure;BME280_temperature;BME280_humidity;BME280_pressure;Samples;Min_cycle;Max_cycle;Signal;HPM_P1;HPM_P2
2022/11/23 00:02:01;;;;;;;3.05;0.50;;;23.80;99.90;;;;;;5000531;28;20290;-78
2022/11/23 00:04:33;;;;;;;0.38;0.30;;;23.80;99.90;;;;;;5008239;28;20212;-79
2022/11/23 00:07:04;;;;;;;0.77;0.40;;;23.70;99.90;;;;;;5008956;28;20231;-79
2022/11/23 00:09:36;;;;;;;1.60;0.43;;;23.90;99.90;;;;;;5008622;28;20211;-78
2022/11/23 00:12:13;;;;;;;1.80;0.25;;;23.90;99.90;;;;;;5011238;28;20194;-79
2022/11/23 00:14:44;;;;;;;0.50;0.13;;;24.00;99.90;;;;;;5001106;28;20280;-78
2022/11/23 00:17:19;;;;;;;0.38;0.30;;;24.00;99.90;;;;;;5006632;28;20206;-79
2022/11/23 00:19:50;;;;;;;1.92;0.40;;;24.30;99.90;;;;;;5006052;28;20200;-81
2022/11/23 00:22:22;;;;;;;2.25;0.30;;;24.50;99.90;;;;;;5008691;28;20227;-77
2022/11/23 00:24:55;;;;;;;1.75;0.40;;;24.30;99.90;;;;;;5005691;28;20198;-77
2022/11/23 00:27:26;;;;;;;0.75;0.30;;;24.30;99.90;;;;;;5007348;28;20289;-80
2022/11/23 00:29:59;;;;;;;2.50;0.50;;;24.50;99.90;;;;;;5004480;28;20302;-80
2022/11/23 00:32:33;;;;;;;0.70;0.30;;;24.60;99.90;;;;;;5007476;28;20564;-78
2022/11/23 00:35:04;;;;;;;0.90;0.40;;;24.80;99.90;;;;;;5008605;28;20198;-79
2022/11/23 00:37:36;;;;;;;1.45;0.52;;;24.60;99.90;;;;;;5008805;28;20324;-76
2022/11/23 00:40:07;;;;;;;1.02;0.40;;;24.50;99.90;;;;;;5010739;28;20195;-80
2022/11/23 00:42:38;;;;;;;0.40;0.30;;;24.40;99.90;;;;;;5010922;28;20217;-75
2022/11/23 00:45:10;;;;;;;0.57;0.25;;;24.30;99.90;;;;;;5005782;28;20213;-78
2022/11/23 00:47:45;;;;;;;0.35;0.20;;;24.20;99.90;;;;;;5002438;28;20202;-81
2022/11/23 00:50:16;;;;;;;1.52;0.40;;;24.30;99.90;;;;;;5002066;28;20240;-77
2022/11/23 00:52:47;;;;;;;0.75;0.30;;;24.40;99.90;;;;;;5010098;28;20269;-82
2022/11/23 00:55:21;;;;;;;1.75;0.30;;;24.40;99.90;;;;;;5009094;28;20282;-82
2022/11/23 00:57:55;;;;;;;1.85;0.30;;;24.50;99.90;;;;;;5012383;28;20229;-78
2022/11/23 01:00:27;;;;;;;0.85;0.30;;;24.60;99.90;;;;;;5009839;28;20684;-77
2022/11/23 01:03:01;;;;;;;1.63;0.40;;;24.90;99.90;;;;;;5012910;28;20329;-77
2022/11/23 01:05:33;;;;;;;0.75;0.20;;;25.10;99.90;;;;;;5013298;28;20557;-80
2022/11/23 01:08:05;;;;;;;0.65;0.20;;;25.20;99.90;;;;;;5004479;28;20289;-79
2022/11/23 01:10:36;;;;;;;0.50;0.20;;;25.20;99.90;;;;;;5009590;28;20615;-79
2022/11/23 01:13:08;;;;;;;0.50;0.25;;;25.10;99.90;;;;;;5015482;28;20193;-78
2022/11/23 01:15:41;;;;;;;2.33;1.20;;;25.20;99.90;;;;;;5011572;28;20286;-77
2022/11/23 01:18:15;;;;;;;2.03;0.20;;;25.30;99.90;;;;;;5007778;28;20199;-77
2022/11/23 01:20:48;;;;;;;1.80;0.22;;;25.30;99.90;;;;;;5010111;28;20202;-82
2022/11/23 01:23:20;;;;;;;0.85;0.20;;;25.40;99.90;;;;;;5015593;28;20197;-77
2022/11/23 01:25:52;;;;;;;0.50;0.20;;;25.30;99.90;;;;;;5001084;28;20204;-78
2022/11/23 01:28:23;;;;;;;0.75;0.30;;;25.40;99.90;;;;;;5010361;28;20253;-79
2022/11/23 01:31:06;;;;;;;0.57;0.30;;;25.40;99.90;;;;;;5008259;28;20207;-82
2022/11/23 01:33:44;;;;;;;4.90;3.72;;;25.40;99.90;;;;;;5004943;28;20301;-80
2022/11/23 01:36:25;;;;;;;5.45;1.55;;;25.50;99.90;;;;;;5009188;28;20313;-79
2022/11/23 01:38:56;;;;;;;2.78;0.93;;;25.80;99.90;;;;;;5006586;28;20285;-80
2022/11/23 01:41:31;;;;;;;5.82;1.20;;;26.10;99.90;;;;;;5011497;28;20273;-79
2022/11/23 01:44:02;;;;;;;2.45;0.70;;;26.20;99.90;;;;;;5008361;28;20199;-78
2022/11/23 01:46:35;;;;;;;1.42;0.68;;;25.90;99.90;;;;;;5013704;28;20289;-79
2022/11/23 01:49:11;;;;;;;1.00;0.30;;;25.90;99.90;;;;;;5009776;28;20291;-81
2022/11/23 01:51:45;;;;;;;0.63;0.30;;;25.80;99.90;;;;;;5013156;28;20293;-82
2022/11/23 01:54:20;;;;;;;0.70;0.32;;;25.80;99.90;;;;;;5014824;28;20226;-80
2022/11/23 01:56:57;;;;;;;0.43;0.20;;;25.70;99.90;;;;;;5001101;28;20205;-78
2022/11/23 01:59:31;;;;;;;1.23;0.28;;;25.80;99.90;;;;;;5013484;28;20278;-79
2022/11/23 02:02:02;;;;;;;1.27;0.30;;;25.80;99.90;;;;;;5010971;28;20199;-78
2022/11/23 02:04:41;;;;;;;1.17;0.30;;;25.90;99.90;;;;;;5012247;28;20279;-79
2022/11/23 02:07:13;;;;;;;1.65;0.20;;;26.00;99.90;;;;;;5003179;28;20680;-79
2022/11/23 02:09:46;;;;;;;1.27;0.40;;;26.20;99.90;;;;;;5025725;28;20218;-80
2022/11/23 02:12:19;;;;;;;0.68;0.30;;;26.40;99.90;;;;;;5010941;28;20191;-78
2022/11/23 02:14:58;;;;;;;1.33;0.30;;;26.70;99.90;;;;;;5011111;28;20199;-82
2022/11/23 02:17:32;;;;;;;2.67;0.30;;;26.80;99.90;;;;;;5013152;28;20312;-83
2022/11/23 02:20:12;;;;;;;0.95;0.20;;;26.80;99.90;;;;;;5007051;28;20492;-78
2022/11/23 02:22:57;;;;;;;3.67;0.55;;;26.80;99.90;;;;;;5010288;28;20198;-80
2022/11/23 02:25:38;;;;;;;0.55;0.15;;;26.80;99.90;;;;;;5006063;28;20278;-80
2022/11/23 02:28:14;;;;;;;1.67;0.40;;;26.80;99.90;;;;;;5010665;28;20260;-79
2022/11/23 02:30:46;;;;;;;0.70;0.30;;;26.50;99.90;;;;;;5011433;28;20260;-81
2022/11/23 02:33:17;;;;;;;2.35;0.70;;;26.40;99.90;;;;;;5007191;28;20297;-78
2022/11/23 02:35:53;;;;;;;0.85;0.40;;;26.30;99.90;;;;;;5005762;28;20681;-79
2022/11/23 02:38:26;;;;;;;1.60;0.60;;;26.40;99.90;;;;;;5010637;28;20282;-80
2022/11/23 02:40:59;;;;;;;0.20;0.20;;;26.40;99.90;;;;;;5001238;28;20683;-80
2022/11/23 02:43:35;;;;;;;0.77;0.38;;;26.40;99.90;;;;;;5006386;28;20329;-79
2022/11/23 02:48:56;;;;;;;0.80;0.40;;;26.50;99.90;;;;;;5002635;28;20230;-79
2022/11/23 02:51:29;;;;;;;0.90;0.17;;;26.60;99.90;;;;;;5003071;28;20274;-78
2022/11/23 02:54:00;;;;;;;0.88;0.10;;;26.60;99.90;;;;;;5006565;28;20198;-79
2022/11/23 02:56:32;;;;;;;0.25;0.20;;;26.90;99.90;;;;;;5010297;28;20539;-78
2022/11/23 02:59:07;;;;;;;1.25;0.38;;;26.90;99.90;;;;;;5008252;28;20207;-80
2022/11/23 03:01:39;;;;;;;0.98;0.20;;;26.90;99.90;;;;;;5005418;28;20199;-79
2022/11/23 03:04:11;;;;;;;2.50;0.30;;;27.00;99.90;;;;;;5010412;28;20251;-77
2022/11/23 03:06:43;;;;;;;0.50;0.20;;;26.90;99.90;;;;;;5009421;28;20199;-79
2022/11/23 03:09:14;;;;;;;1.17;0.20;;;26.90;99.90;;;;;;5007922;28;20466;-79
2022/11/23 03:11:47;;;;;;;0.40;0.10;;;26.90;99.90;;;;;;5010597;28;20227;-79
2022/11/23 03:14:23;;;;;;;0.25;0.20;;;26.90;99.90;;;;;;5010418;28;20199;-79
2022/11/23 03:16:54;;;;;;;0.30;0.20;;;26.80;99.90;;;;;;5006457;28;20224;-79
2022/11/23 03:19:26;;;;;;;0.45;0.20;;;26.90;99.90;;;;;;5012782;28;20286;-80
2022/11/23 03:21:57;;;;;;;0.90;0.20;;;26.90;99.90;;;;;;5010516;28;20205;-82
2022/11/23 03:24:38;;;;;;;2.53;0.43;;;27.00;99.90;;;;;;5010295;28;20586;-80
2022/11/23 03:27:10;;;;;;;0.55;0.15;;;27.10;99.90;;;;;;5008758;28;20310;-80
2022/11/23 03:29:47;;;;;;;0.30;0.20;;;27.20;99.90;;;;;;5014006;28;20223;-82
2022/11/23 03:32:18;;;;;;;0.95;0.20;;;27.20;99.90;;;;;;5012099;28;20586;-78
2022/11/23 03:34:49;;;;;;;1.65;0.30;;;27.20;99.90;;;;;;5001996;28;20718;-78
2022/11/23 03:37:20;;;;;;;1.27;0.30;;;27.10;99.90;;;;;;5010090;28;20245;-79
2022/11/23 03:39:51;;;;;;;0.57;0.40;;;27.10;99.90;;;;;;5005880;28;20314;-78
2022/11/23 03:42:23;;;;;;;0.75;0.20;;;27.20;99.90;;;;;;5003707;28;20197;-80
2022/11/23 03:44:57;;;;;;;1.45;0.30;;;27.30;99.90;;;;;;5006995;28;20199;-78
2022/11/23 03:47:32;;;;;;;2.10;0.20;;;27.20;99.90;;;;;;5009776;28;20216;-81
2022/11/23 03:50:04;;;;;;;0.40;0.10;;;27.10;99.90;;;;;;5000108;28;20298;-81
2022/11/23 03:52:37;;;;;;;2.47;1.60;;;27.10;99.90;;;;;;5006261;28;20203;-78
2022/11/23 03:55:09;;;;;;;0.80;0.60;;;27.20;99.90;;;;;;4998910;28;20200;-78
2022/11/23 03:57:40;;;;;;;0.75;0.28;;;27.20;99.90;;;;;;5009717;28;20241;-78
2022/11/23 04:00:19;;;;;;;1.15;0.50;;;27.30;99.90;;;;;;5008274;28;20294;-82
2022/11/23 04:02:51;;;;;;;2.17;0.20;;;27.30;99.90;;;;;;5005151;28;20657;-80
2022/11/23 04:05:22;;;;;;;1.38;0.20;;;27.40;99.90;;;;;;5006200;28;20191;-79
2022/11/23 04:10:43;;;;;;;0.28;0.13;;;27.40;99.90;;;;;;5000903;28;20364;-83
2022/11/23 04:13:15;;;;;;;0.90;0.20;;;27.40;99.90;;;;;;5008462;28;20638;-78
2022/11/23 04:15:49;;;;;;;0.98;0.30;;;27.30;99.90;;;;;;5003184;28;20279;-79
2022/11/23 04:18:21;;;;;;;0.20;0.20;;;27.20;99.90;;;;;;5000710;28;20225;-76
2022/11/23 04:20:52;;;;;;;1.05;0.20;;;27.40;99.90;;;;;;5002332;28;20665;-79
2022/11/23 04:23:23;;;;;;;0.90;0.32;;;27.50;99.90;;;;;;5008537;28;20199;-77
2022/11/23 04:25:55;;;;;;;1.48;0.20;;;27.40;99.90;;;;;;5000843;28;20234;-79
2022/11/23 04:28:26;;;;;;;0.50;0.22;;;27.50;99.90;;;;;;5011583;28;20292;-78
2022/11/23 04:31:00;;;;;;;1.00;0.20;;;27.40;99.90;;;;;;5003647;28;20225;-79
2022/11/23 04:33:31;;;;;;;0.85;0.20;;;27.40;99.90;;;;;;5007016;28;20222;-77
2022/11/23 04:36:03;;;;;;;0.10;0.10;;;27.40;99.90;;;;;;5005369;28;20274;-78
2022/11/23 04:38:35;;;;;;;0.13;0.10;;;27.50;99.90;;;;;;4998557;28;20678;-79
2022/11/23 04:41:07;;;;;;;0.25;0.13;;;27.50;99.90;;;;;;5001361;28;20296;-77
2022/11/23 04:43:38;;;;;;;0.70;0.20;;;27.60;99.90;;;;;;5006529;28;20209;-77
2022/11/23 04:46:13;;;;;;;0.60;0.30;;;27.60;99.90;;;;;;4996432;28;20195;-77
2022/11/23 04:48:45;;;;;;;0.10;0.10;;;27.70;99.90;;;;;;5010257;28;20238;-77
2022/11/23 04:51:17;;;;;;;1.08;0.25;;;27.80;99.90;;;;;;5017336;28;20226;-78
2022/11/23 04:53:49;;;;;;;1.35;0.10;;;27.90;99.90;;;;;;4996576;28;20680;-80
2022/11/23 04:56:20;;;;;;;0.50;0.20;;;27.80;99.90;;;;;;5007839;28;20195;-78
2022/11/23 04:58:51;;;;;;;0.30;0.30;;;27.70;99.90;;;;;;5004903;28;20628;-78
2022/11/23 05:01:25;;;;;;;1.15;0.30;;;27.70;99.90;;;;;;5005530;28;20194;-79
2022/11/23 05:03:57;;;;;;;0.20;0.20;;;28.00;99.90;;;;;;5006835;28;20601;-79
2022/11/23 05:06:29;;;;;;;0.40;0.10;;;28.10;99.90;;;;;;5000104;28;20194;-78
2022/11/23 05:09:01;;;;;;;0.30;0.30;;;28.10;99.90;;;;;;5011072;28;20553;-79
2022/11/23 05:11:33;;;;;;;0.75;0.30;;;28.20;99.90;;;;;;5004659;28;20365;-77
2022/11/23 05:14:05;;;;;;;0.57;0.20;;;28.10;99.90;;;;;;5007361;28;20282;-80
2022/11/23 05:16:39;;;;;;;2.10;0.20;;;28.10;99.90;;;;;;5001579;28;20199;-77
2022/11/23 05:19:10;;;;;;;0.30;0.20;;;28.20;99.90;;;;;;5004555;28;20207;-78
2022/11/23 05:21:46;;;;;;;0.22;0.10;;;28.20;99.90;;;;;;5012481;28;20192;-78
2022/11/23 05:24:17;;;;;;;0.50;0.22;;;28.40;99.90;;;;;;5002931;28;20198;-80
2022/11/23 05:26:49;;;;;;;0.32;0.20;;;28.40;99.90;;;;;;5006875;28;20287;-80
2022/11/23 05:29:20;;;;;;;0.98;0.20;;;28.20;99.90;;;;;;5001837;28;20553;-77
2022/11/23 05:32:01;;;;;;;1.02;0.20;;;28.20;99.90;;;;;;5011548;28;20315;-78
2022/11/23 05:34:32;;;;;;;0.77;0.20;;;28.30;99.90;;;;;;5000817;28;20203;-78
2022/11/23 05:37:03;;;;;;;1.50;0.20;;;28.50;99.90;;;;;;5006355;28;20231;-77
2022/11/23 05:39:34;;;;;;;0.57;0.20;;;28.50;99.90;;;;;;5012927;28;20201;-79
2022/11/23 05:42:06;;;;;;;1.17;0.10;;;28.50;99.90;;;;;;5011234;28;20213;-78
2022/11/23 05:44:37;;;;;;;1.42;0.30;;;28.50;99.90;;;;;;5008261;28;20636;-77
2022/11/23 05:47:11;;;;;;;0.20;0.10;;;28.50;99.90;;;;;;5011524;28;20281;-79
2022/11/23 05:49:42;;;;;;;1.95;0.20;;;28.40;99.90;;;;;;5005788;28;20274;-80
2022/11/23 05:52:13;;;;;;;0.22;0.10;;;28.30;99.90;;;;;;5013073;28;20226;-78
2022/11/23 05:54:44;;;;;;;1.10;0.20;;;28.30;99.90;;;;;;5007694;28;20688;-77
2022/11/23 05:57:16;;;;;;;1.13;0.20;;;28.40;99.90;;;;;;5006330;28;20610;-78
2022/11/23 05:59:47;;;;;;;0.55;0.20;;;28.50;99.90;;;;;;5010806;28;20199;-81
2022/11/23 06:02:22;;;;;;;0.20;0.08;;;28.50;99.90;;;;;;5001245;28;20183;-78
2022/11/23 06:04:59;;;;;;;0.32;0.10;;;28.40;99.90;;;;;;5009759;28;20317;-78
2022/11/23 06:07:30;;;;;;;0.20;0.10;;;28.40;99.90;;;;;;5008665;28;20202;-77
2022/11/23 06:10:01;;;;;;;3.03;0.20;;;28.30;99.90;;;;;;5009122;28;20231;-79
2022/11/23 06:12:33;;;;;;;0.52;0.10;;;28.30;99.90;;;;;;5009095;28;20287;-79
2022/11/23 06:15:07;;;;;;;0.82;0.17;;;28.20;99.90;;;;;;5003712;28;20202;-82
2022/11/23 06:17:42;;;;;;;1.50;0.20;;;28.20;99.90;;;;;;5006646;28;20277;-81
2022/11/23 06:20:15;;;;;;;2.17;0.30;;;28.20;99.90;;;;;;5006777;28;20572;-79
2022/11/23 06:22:46;;;;;;;1.45;0.30;;;28.30;99.90;;;;;;5005429;28;20293;-79
2022/11/23 06:25:17;;;;;;;0.63;0.20;;;28.10;99.90;;;;;;5005132;28;20200;-77
2022/11/23 06:27:58;;;;;;;0.55;0.30;;;28.00;99.90;;;;;;5008542;28;20573;-77
2022/11/23 06:30:30;;;;;;;0.57;0.30;;;27.60;99.90;;;;;;5006275;28;20211;-77
2022/11/23 06:33:06;;;;;;;1.77;0.40;;;27.20;99.90;;;;;;5006642;28;20227;-76
2022/11/23 06:35:37;;;;;;;2.85;0.30;;;26.90;99.90;;;;;;5013850;28;20199;-77
2022/11/23 06:38:07;;;;;;;2.53;0.40;;;26.60;99.90;;;;;;5011911;28;20206;-76
2022/11/23 06:40:38;;;;;;;1.73;0.50;;;26.40;99.90;;;;;;5012010;28;20202;-77
2022/11/23 06:43:09;;;;;;;2.28;0.52;;;26.10;99.90;;;;;;5014588;28;20194;-75
2022/11/23 06:45:40;;;;;;;1.08;0.40;;;25.80;99.90;;;;;;5012829;28;20199;-77
2022/11/23 06:48:15;;;;;;;1.17;0.40;;;25.60;99.90;;;;;;5010931;28;20643;-77
2022/11/23 06:50:46;;;;;;;1.15;0.57;;;25.50;99.90;;;;;;5008308;28;20223;-76
2022/11/23 06:53:17;;;;;;;1.30;0.28;;;25.40;99.90;;;;;;5007926;28;20290;-76
2022/11/23 06:55:48;;;;;;;1.65;0.30;;;25.40;99.90;;;;;;5008492;28;20290;-76
2022/11/23 06:58:20;;;;;;;0.60;0.30;;;25.20;99.90;;;;;;5013667;28;20642;-76
2022/11/23 07:00:51;;;;;;;0.82;0.43;;;25.20;99.90;;;;;;5006345;28;20195;-75
2022/11/23 07:03:27;;;;;;;0.25;0.20;;;25.20;99.90;;;;;;5011581;28;20201;-77
2022/11/23 07:05:59;;;;;;;1.38;0.30;;;25.10;99.90;;;;;;5009455;28;20202;-76
2022/11/23 07:08:30;;;;;;;1.38;0.40;;;25.00;99.90;;;;;;5011463;28;20554;-77
2022/11/23 07:11:05;;;;;;;0.73;0.28;;;25.00;99.90;;;;;;5007564;28;20638;-76
2022/11/23 07:13:38;;;;;;;1.83;0.32;;;24.90;99.90;;;;;;5009493;28;20213;-78
2022/11/23 07:16:09;;;;;;;1.88;0.50;;;24.80;99.90;;;;;;5002384;28;20298;-77
2022/11/23 07:18:44;;;;;;;2.42;0.40;;;24.60;99.90;;;;;;5002471;28;20196;-76
2022/11/23 07:21:15;;;;;;;1.15;0.40;;;24.60;99.90;;;;;;5011932;28;20197;-77
2022/11/23 07:23:53;;;;;;;1.33;0.40;;;24.60;99.90;;;;;;5010895;28;20206;-77
2022/11/23 07:26:24;;;;;;;2.13;0.50;;;24.60;99.90;;;;;;5014681;28;20217;-77
2022/11/23 07:28:55;;;;;;;1.40;0.57;;;24.60;99.90;;;;;;5012466;28;20202;-78
2022/11/23 07:31:27;;;;;;;1.83;0.40;;;24.50;99.90;;;;;;5001844;28;20238;-78
2022/11/23 07:34:01;;;;;;;0.73;0.50;;;24.50;99.90;;;;;;5011867;28;20235;-77
2022/11/23 07:36:32;;;;;;;0.70;0.50;;;24.50;99.90;;;;;;5009454;22;20237;-76
2022/11/23 07:39:04;;;;;;;1.42;0.50;;;24.50;99.90;;;;;;5002306;28;20198;-79
2022/11/23 07:41:36;;;;;;;1.13;0.52;;;24.50;99.90;;;;;;4989337;28;20195;-78
2022/11/23 07:44:07;;;;;;;2.55;0.60;;;24.60;99.90;;;;;;5010523;28;20198;-80
2022/11/23 07:46:39;;;;;;;3.33;0.50;;;24.50;99.90;;;;;;5010629;28;20727;-78
2022/11/23 07:49:13;;;;;;;3.97;0.70;;;24.40;99.90;;;;;;5010668;28;20201;-78
2022/11/23 07:51:44;;;;;;;1.75;0.50;;;24.50;99.90;;;;;;5006815;28;20228;-77
2022/11/23 07:54:16;;;;;;;2.88;0.70;;;24.50;99.90;;;;;;5004655;28;20191;-79
2022/11/23 07:56:47;;;;;;;2.58;0.70;;;24.40;99.90;;;;;;5008251;28;20202;-77
2022/11/23 07:59:18;;;;;;;2.00;0.70;;;24.50;99.90;;;;;;5010144;28;20202;-76
2022/11/23 08:01:50;;;;;;;3.30;0.65;;;24.40;99.90;;;;;;5007043;28;20199;-76
2022/11/23 08:04:25;;;;;;;2.13;0.60;;;24.50;99.90;;;;;;4969876;28;20205;-76
2022/11/23 08:06:56;;;;;;;2.35;0.70;;;24.50;99.90;;;;;;5008983;28;20205;-76
2022/11/23 08:09:28;;;;;;;4.82;1.20;;;24.30;99.90;;;;;;5004041;28;20205;-76
2022/11/23 08:11:59;;;;;;;3.08;0.70;;;24.10;99.90;;;;;;4992274;28;20218;-76
2022/11/23 08:14:30;;;;;;;5.10;1.05;;;23.80;99.90;;;;;;4999934;28;20289;-77
2022/11/23 08:17:01;;;;;;;4.97;1.00;;;23.60;99.90;;;;;;5005040;28;20290;-75
2022/11/23 08:19:36;;;;;;;4.53;0.90;;;23.50;99.90;;;;;;5006517;28;20306;-77
2022/11/23 08:22:07;;;;;;;3.40;1.15;;;23.40;99.90;;;;;;4992128;28;20285;-76
2022/11/23 08:24:38;;;;;;;2.88;1.00;;;23.20;99.90;;;;;;5000586;28;20666;-76
2022/11/23 08:27:10;;;;;;;43.55;26.85;;;23.00;99.90;;;;;;5011063;28;20278;-77
2022/11/23 08:29:41;;;;;;;4.78;1.60;;;22.90;99.90;;;;;;4975343;28;20192;-76
2022/11/23 08:32:13;;;;;;;3.03;1.13;;;22.80;99.90;;;;;;5007656;28;20627;-77
2022/11/23 08:34:47;;;;;;;3.60;1.38;;;22.70;99.90;;;;;;5004734;28;20768;-75
2022/11/23 08:37:19;;;;;;;3.00;1.40;;;22.60;99.90;;;;;;5003489;28;20197;-75
2022/11/23 08:39:49;;;;;;;2.85;1.20;;;22.60;99.90;;;;;;5002589;28;20286;-75
2022/11/23 08:42:21;;;;;;;2.17;1.30;;;22.50;99.90;;;;;;4995386;28;20206;-76
2022/11/23 08:44:52;;;;;;;3.13;0.90;;;22.40;99.90;;;;;;5009270;28;20762;-77
2022/11/23 08:47:23;;;;;;;2.13;0.90;;;22.30;99.90;;;;;;5003186;28;20202;-75
2022/11/23 08:49:57;;;;;;;2.65;0.80;;;22.20;99.90;;;;;;5003812;28;20298;-77
2022/11/23 08:52:28;;;;;;;5.13;1.00;;;22.10;99.90;;;;;;5001412;28;20780;-76
2022/11/23 08:55:00;;;;;;;2.95;1.10;;;22.00;99.90;;;;;;4999148;28;20657;-76
2022/11/23 08:57:31;;;;;;;4.45;1.10;;;22.00;99.90;;;;;;5002558;28;20199;-80
2022/11/23 09:00:04;;;;;;;4.15;1.30;;;21.90;99.90;;;;;;5002958;28;20199;-76
2022/11/23 09:02:35;;;;;;;4.05;1.30;;;21.90;99.90;;;;;;5010369;28;20199;-77
2022/11/23 09:05:10;;;;;;;5.28;1.30;;;21.80;99.90;;;;;;5004133;28;20297;-76
2022/11/23 09:07:41;;;;;;;5.32;1.15;;;21.80;99.90;;;;;;4999132;28;20646;-78
2022/11/23 09:10:13;;;;;;;5.22;1.15;;;21.70;99.90;;;;;;5004738;28;20539;-76
2022/11/23 09:12:44;;;;;;;5.88;1.55;;;21.70;99.90;;;;;;5001867;28;20234;-76
2022/11/23 09:15:15;;;;;;;4.72;1.60;;;21.70;99.90;;;;;;5008591;28;20213;-76
2022/11/23 09:17:47;;;;;;;3.45;1.20;;;21.60;99.90;;;;;;5015203;28;20286;-76
2022/11/23 09:20:20;;;;;;;5.40;1.58;;;21.60;99.90;;;;;;4999699;28;20289;-76
2022/11/23 09:22:55;;;;;;;2.70;1.00;;;21.50;99.90;;;;;;5008228;28;20205;-75
2022/11/23 09:25:26;;;;;;;6.25;1.42;;;21.50;99.90;;;;;;5008426;28;20282;-77
2022/11/23 09:28:03;;;;;;;3.00;1.00;;;21.40;99.90;;;;;;5009557;28;20871;-76
2022/11/23 09:30:34;;;;;;;3.13;1.10;;;21.40;99.90;;;;;;5012552;28;20194;-78
2022/11/23 09:33:07;;;;;;;5.50;1.10;;;21.40;99.90;;;;;;5009347;28;20280;-78
2022/11/23 09:35:41;;;;;;;5.45;1.00;;;21.40;99.90;;;;;;5007199;28;20234;-78
2022/11/23 09:38:13;;;;;;;3.92;1.15;;;21.30;99.90;;;;;;5011123;28;20562;-76
2022/11/23 09:40:45;;;;;;;6.53;1.23;;;21.30;99.90;;;;;;5002401;28;20238;-76
2022/11/23 09:43:40;;;;;;;3.05;1.00;;;21.20;99.90;;;;;;5009483;28;20199;-80
2022/11/23 09:46:19;;;;;;;3.25;0.93;;;21.20;99.90;;;;;;5012185;28;20684;-76
2022/11/23 09:49:24;;;;;;;3.83;1.00;;;21.20;99.90;;;;;;5013439;28;20534;-77
2022/11/23 09:51:59;;;;;;;2.83;1.23;;;21.20;99.90;;;;;;4954301;29;20713;-78
2022/11/23 09:54:33;;;;;;;1.88;0.80;;;21.20;99.90;;;;;;4954410;29;20267;-75
2022/11/23 09:57:06;;;;;;;2.75;0.85;;;21.20;99.90;;;;;;4988692;28;20680;-76
2022/11/23 09:59:43;;;;;;;2.40;0.90;;;21.10;99.90;;;;;;5015870;28;20278;-77
2022/11/23 10:02:22;;;;;;;2.50;1.00;;;21.10;99.90;;;;;;5012200;28;20233;-77
2022/11/23 10:04:56;;;;;;;2.60;1.02;;;21.10;99.90;;;;;;5015033;28;20195;-77
2022/11/23 10:07:40;;;;;;;3.00;1.00;;;21.10;99.90;;;;;;5013194;28;20232;-78
2022/11/23 10:10:23;;;;;;;2.15;1.13;;;21.10;99.90;;;;;;5013742;28;20287;-79
2022/11/23 10:13:02;;;;;;;2.17;1.00;;;21.00;99.90;;;;;;5013913;28;20211;-78
2022/11/23 10:15:40;;;;;;;2.55;1.02;;;21.00;99.90;;;;;;5010155;28;20195;-78
2022/11/23 10:18:27;;;;;;;4.88;0.90;;;21.00;99.90;;;;;;5011717;28;20282;-77
2022/11/23 10:21:14;;;;;;;5.07;0.80;;;21.00;99.90;;;;;;5015223;28;20290;-77
2022/11/23 10:24:06;;;;;;;2.08;0.80;;;21.00;99.90;;;;;;5008649;28;20225;-79
2022/11/23 10:26:42;;;;;;;1.92;0.80;;;21.00;99.90;;;;;;5005835;28;20195;-80
2022/11/23 10:29:17;;;;;;;1.63;0.70;;;21.00;99.90;;;;;;5015254;28;20191;-80
2022/11/23 10:31:50;;;;;;;2.90;0.65;;;21.00;99.90;;;;;;5015204;28;20217;-76
2022/11/23 10:34:28;;;;;;;1.85;0.80;;;21.00;99.90;;;;;;5009834;28;20227;-81
2022/11/23 10:37:00;;;;;;;2.22;0.90;;;21.00;99.90;;;;;;5011922;28;20234;-82
2022/11/23 10:39:34;;;;;;;2.35;0.73;;;21.00;99.90;;;;;;5013921;28;20199;-80
2022/11/23 10:42:16;;;;;;;2.13;0.80;;;21.00;99.90;;;;;;5013545;28;20280;-77
2022/11/23 10:44:49;;;;;;;3.65;0.90;;;21.10;99.90;;;;;;5009788;28;20785;-76
2022/11/23 10:47:38;;;;;;;2.13;0.77;;;21.00;99.90;;;;;;5013747;28;20234;-76
2022/11/23 10:50:28;;;;;;;2.78;1.20;;;21.00;99.90;;;;;;5013958;28;20191;-76
2022/11/23 10:53:03;;;;;;;2.80;1.05;;;21.00;99.90;;;;;;5003967;28;20298;-76
2022/11/23 10:55:48;;;;;;;2.47;0.90;;;21.00;99.90;;;;;;5012485;28;20202;-76
2022/11/23 10:58:30;;;;;;;2.65;1.00;;;21.00;99.90;;;;;;5014772;28;20194;-75
2022/11/23 11:01:05;;;;;;;5.05;1.20;;;20.90;99.90;;;;;;5014413;28;20194;-76
2022/11/23 11:03:37;;;;;;;2.47;1.20;;;20.90;99.90;;;;;;5010508;28;20198;-77
2022/11/23 11:06:10;;;;;;;3.30;1.30;;;20.90;99.90;;;;;;5012659;28;20281;-76
2022/11/23 11:08:54;;;;;;;2.08;1.27;;;20.90;99.90;;;;;;5014488;28;20195;-75
2022/11/23 11:11:30;;;;;;;2.95;1.00;;;20.80;99.90;;;;;;4996039;28;20281;-75
2022/11/23 11:14:15;;;;;;;4.25;1.00;;;20.80;99.90;;;;;;5009787;28;20187;-76
2022/11/23 11:16:52;;;;;;;2.35;0.80;;;20.80;99.90;;;;;;5013158;28;20555;-75
2022/11/23 11:19:30;;;;;;;3.58;1.20;;;20.70;99.90;;;;;;5009205;28;20279;-75
2022/11/23 11:22:02;;;;;;;1.42;0.77;;;20.60;99.90;;;;;;5004807;28;20195;-75
2022/11/23 11:24:37;;;;;;;2.17;0.98;;;20.60;99.90;;;;;;5007395;28;20639;-75
2022/11/23 11:27:17;;;;;;;2.28;0.93;;;20.60;99.90;;;;;;5008839;28;20309;-75
2022/11/23 11:29:53;;;;;;;1.58;0.70;;;20.50;99.90;;;;;;5013676;28;20195;-75
2022/11/23 11:32:31;;;;;;;1.90;0.75;;;20.50;99.90;;;;;;5012294;28;20215;-76
2022/11/23 11:35:12;;;;;;;2.85;0.90;;;20.40;99.90;;;;;;5006826;28;20301;-75
2022/11/23 11:37:46;;;;;;;3.33;0.90;;;20.40;99.90;;;;;;5011543;28;20301;-75
2022/11/23 11:40:25;;;;;;;3.38;0.93;;;20.40;99.90;;;;;;5009288;28;20601;-75
2022/11/23 11:43:03;;;;;;;2.25;1.20;;;20.40;99.90;;;;;;5009649;28;20198;-76
2022/11/23 11:45:38;;;;;;;5.47;1.05;;;20.40;99.90;;;;;;5009731;28;20217;-75
2022/11/23 11:48:15;;;;;;;6.05;1.02;;;20.50;99.90;;;;;;5012094;28;20650;-76
2022/11/23 11:50:52;;;;;;;4.00;1.02;;;20.50;99.90;;;;;;4996886;28;20203;-75
2022/11/23 11:53:29;;;;;;;6.40;1.17;;;20.60;99.90;;;;;;5010154;28;20578;-76
2022/11/23 11:56:05;;;;;;;6.93;1.70;;;20.60;99.90;;;;;;4993523;28;20724;-75
2022/11/23 11:58:40;;;;;;;6.00;1.27;;;20.60;99.90;;;;;;5006418;28;20194;-75
2022/11/23 12:01:19;;;;;;;7.85;1.33;;;20.50;99.90;;;;;;5004970;28;20210;-75
2022/11/23 12:03:56;;;;;;;7.50;1.00;;;20.50;99.90;;;;;;5008064;28;20199;-75
2022/11/23 12:06:34;;;;;;;8.75;1.23;;;20.40;99.90;;;;;;4993499;28;20273;-75
2022/11/23 12:09:12;;;;;;;6.03;1.60;;;20.40;99.90;;;;;;5010738;28;20562;-75
2022/11/23 12:11:44;;;;;;;13.15;1.98;;;20.40;99.90;;;;;;5012636;28;20638;-76
2022/11/23 12:14:18;;;;;;;7.85;1.90;;;20.30;99.90;;;;;;5012067;28;20574;-77
2022/11/23 12:16:58;;;;;;;7.43;1.48;;;20.20;99.90;;;;;;5010080;28;20205;-75
2022/11/23 12:19:39;;;;;;;12.32;1.48;;;20.10;99.90;;;;;;5013206;28;20270;-76
2022/11/23 12:22:38;;;;;;;9.50;1.50;;;20.10;99.90;;;;;;5007780;28;20281;-76
2022/11/23 12:25:21;;;;;;;5.85;1.42;;;20.00;99.90;;;;;;5011525;28;20194;-75
2022/11/23 12:28:07;;;;;;;7.95;1.65;;;19.90;99.90;;;;;;5006706;28;20221;-76
2022/11/23 12:30:48;;;;;;;10.90;1.55;;;19.90;99.90;;;;;;5010008;28;20367;-74
2022/11/23 12:33:41;;;;;;;7.85;1.90;;;19.80;99.90;;;;;;5005313;28;20572;-74
2022/11/23 12:36:21;;;;;;;10.43;1.70;;;19.80;99.90;;;;;;5010610;28;20675;-75
2022/11/23 12:39:00;;;;;;;9.00;1.75;;;19.70;99.90;;;;;;5011180;28;20261;-76
2022/11/23 12:41:42;;;;;;;7.57;1.58;;;19.70;99.90;;;;;;5007646;28;20317;-75
2022/11/23 12:44:42;;;;;;;6.32;1.20;;;19.70;99.90;;;;;;4998053;28;20196;-77
2022/11/23 12:47:25;;;;;;;8.18;1.70;;;19.60;99.90;;;;;;4995707;28;20207;-76
2022/11/23 12:50:04;;;;;;;10.25;1.20;;;19.60;99.90;;;;;;5010353;28;20669;-76
2022/11/23 12:52:59;;;;;;;8.75;1.40;;;19.60;99.90;;;;;;4993350;28;20237;-76
2022/11/23 12:55:41;;;;;;;4.28;1.05;;;19.60;99.90;;;;;;5014470;28;20598;-75
2022/11/23 12:58:21;;;;;;;6.38;1.30;;;19.60;99.90;;;;;;5015977;28;20561;-76
2022/11/23 13:00:57;;;;;;;5.97;1.23;;;19.60;99.90;;;;;;5013436;28;20289;-75
2022/11/23 13:03:57;;;;;;;8.98;1.38;;;19.60;99.90;;;;;;5016419;28;20206;-75
2022/11/23 13:06:57;;;;;;;7.45;1.25;;;19.60;99.90;;;;;;5014158;28;20646;-78
2022/11/23 13:09:42;;;;;;;6.80;1.48;;;19.60;99.90;;;;;;4998444;28;20287;-75
2022/11/23 13:12:31;;;;;;;6.63;1.13;;;19.50;99.90;;;;;;5013324;28;20665;-75
2022/11/23 13:15:18;;;;;;;5.57;1.40;;;19.50;99.90;;;;;;4999222;28;20693;-77
2022/11/23 13:17:57;;;;;;;9.13;1.55;;;19.50;99.90;;;;;;5007121;28;20205;-75
2022/11/23 13:21:01;;;;;;;5.35;1.20;;;19.50;99.90;;;;;;4995780;28;20199;-76
2022/11/23 13:23:38;;;;;;;8.75;1.30;;;19.40;99.90;;;;;;5012390;28;20198;-75
2022/11/23 13:26:20;;;;;;;4.00;1.13;;;19.40;99.90;;;;;;5011017;28;20199;-77
2022/11/23 13:28:53;;;;;;;7.93;1.15;;;19.40;99.90;;;;;;4990549;28;20200;-76
2022/11/23 13:31:34;;;;;;;3.63;1.15;;;19.50;99.90;;;;;;5014309;28;20199;-77